Annapolis, Washington
Current Conditions -  °F | °C
As of 10:55 PM on Monday 20 Oct 2014 (Local Time) from KPWT Reporting Station
Overcast Overcast  
Wind Chill: 54°   Ceiling: 2400
Heat Index: 54°   Visibility: 10mi
Dew Point: 52°   Wind: 8mph
Humidity: 94%   Direction: 200°SSW
Pressure: 29.82"   Gusts: NA
Location:  47.5378°N, 122.589°W
Report Text: KPWT 210555Z AUTO 20007KT 10SM FEW011 BKN024 OVC065 12/11 A2982 RMK AO1 P0020 60028 10150 20110 52014
Loading
Personal Weather Stations






























Interactive Weather Map New forecast layout! Learn more

10-Day Weather Forecast

Advertisements
Track Severe Weather on mobile